sensor_id;sensor_type;location;lat;lon;timestamp;P1;durP1;ratioP1;P2;durP2;ratioP2
23444;SDS011;11895;48.738;9.320;2023-01-06T00:01:33;18.17;;;8.13;;
23444;SDS011;11895;48.738;9.320;2023-01-06T00:04:01;23.45;;;8.88;;
23444;SDS011;11895;48.738;9.320;2023-01-06T00:06:29;15.75;;;7.75;;
23444;SDS011;11895;48.738;9.320;2023-01-06T00:08:58;17.27;;;9.37;;
23444;SDS011;11895;48.738;9.320;2023-01-06T00:11:29;13.50;;;6.82;;
23444;SDS011;11895;48.738;9.320;2023-01-06T00:13:57;16.08;;;8.27;;
23444;SDS011;11895;48.738;9.320;2023-01-06T00:16:26;14.70;;;7.83;;
23444;SDS011;11895;48.738;9.320;2023-01-06T00:18:57;19.67;;;8.80;;
23444;SDS011;11895;48.738;9.320;2023-01-06T00:21:25;15.45;;;7.57;;
23444;SDS011;11895;48.738;9.320;2023-01-06T00:23:54;17.33;;;8.45;;
23444;SDS011;11895;48.738;9.320;2023-01-06T00:26:22;14.90;;;7.25;;
23444;SDS011;11895;48.738;9.320;2023-01-06T00:28:54;16.08;;;7.93;;
23444;SDS011;11895;48.738;9.320;2023-01-06T00:31:24;19.45;;;8.95;;
23444;SDS011;11895;48.738;9.320;2023-01-06T00:33:54;18.42;;;8.13;;
23444;SDS011;11895;48.738;9.320;2023-01-06T00:36:23;16.23;;;8.63;;
23444;SDS011;11895;48.738;9.320;2023-01-06T00:38:51;21.63;;;9.57;;
23444;SDS011;11895;48.738;9.320;2023-01-06T00:41:18;15.63;;;8.52;;
23444;SDS011;11895;48.738;9.320;2023-01-06T00:44:05;15.70;;;8.52;;
23444;SDS011;11895;48.738;9.320;2023-01-06T00:46:34;22.98;;;9.55;;
23444;SDS011;11895;48.738;9.320;2023-01-06T00:49:02;19.25;;;8.25;;
23444;SDS011;11895;48.738;9.320;2023-01-06T00:51:33;14.43;;;7.82;;
23444;SDS011;11895;48.738;9.320;2023-01-06T00:54:07;17.65;;;8.23;;
23444;SDS011;11895;48.738;9.320;2023-01-06T00:56:38;16.65;;;7.45;;
23444;SDS011;11895;48.738;9.320;2023-01-06T00:59:12;20.33;;;8.85;;
23444;SDS011;11895;48.738;9.320;2023-01-06T01:01:43;16.60;;;8.48;;
23444;SDS011;11895;48.738;9.320;2023-01-06T01:04:13;18.17;;;7.95;;
23444;SDS011;11895;48.738;9.320;2023-01-06T01:06:42;21.25;;;7.70;;
23444;SDS011;11895;48.738;9.320;2023-01-06T01:09:14;16.30;;;7.35;;
23444;SDS011;11895;48.738;9.320;2023-01-06T01:11:44;15.68;;;6.72;;
23444;SDS011;11895;48.738;9.320;2023-01-06T01:14:31;15.77;;;7.60;;
23444;SDS011;11895;48.738;9.320;2023-01-06T01:17:00;14.90;;;7.75;;
23444;SDS011;11895;48.738;9.320;2023-01-06T01:19:29;15.63;;;7.30;;
23444;SDS011;11895;48.738;9.320;2023-01-06T01:21:59;13.75;;;6.88;;
23444;SDS011;11895;48.738;9.320;2023-01-06T01:24:26;19.95;;;7.30;;
23444;SDS011;11895;48.738;9.320;2023-01-06T01:26:54;17.50;;;7.32;;
23444;SDS011;11895;48.738;9.320;2023-01-06T01:29:23;17.90;;;7.68;;
23444;SDS011;11895;48.738;9.320;2023-01-06T01:31:51;17.63;;;7.72;;
23444;SDS011;11895;48.738;9.320;2023-01-06T01:34:20;12.40;;;6.72;;
23444;SDS011;11895;48.738;9.320;2023-01-06T01:36:50;16.90;;;6.60;;
23444;SDS011;11895;48.738;9.320;2023-01-06T01:39:21;11.70;;;6.32;;
23444;SDS011;11895;48.738;9.320;2023-01-06T01:41:53;15.25;;;6.65;;
23444;SDS011;11895;48.738;9.320;2023-01-06T01:47:38;15.90;;;7.03;;
23444;SDS011;11895;48.738;9.320;2023-01-06T01:52:55;15.10;;;6.60;;
23444;SDS011;11895;48.738;9.320;2023-01-06T01:55:31;19.90;;;7.13;;
23444;SDS011;11895;48.738;9.320;2023-01-06T02:00:49;14.93;;;6.75;;
23444;SDS011;11895;48.738;9.320;2023-01-06T02:03:19;13.68;;;6.65;;
23444;SDS011;11895;48.738;9.320;2023-01-06T02:05:49;10.25;;;6.30;;
23444;SDS011;11895;48.738;9.320;2023-01-06T02:08:35;12.57;;;6.40;;
23444;SDS011;11895;48.738;9.320;2023-01-06T02:11:10;12.20;;;6.13;;
23444;SDS011;11895;48.738;9.320;2023-01-06T02:13:39;11.50;;;6.22;;
23444;SDS011;11895;48.738;9.320;2023-01-06T02:34:36;10.50;;;5.82;;
23444;SDS011;11895;48.738;9.320;2023-01-06T02:46:03;11.38;;;5.90;;
23444;SDS011;11895;48.738;9.320;2023-01-06T02:55:06;12.75;;;6.35;;
23444;SDS011;11895;48.738;9.320;2023-01-06T02:58:33;13.02;;;5.70;;
23444;SDS011;11895;48.738;9.320;2023-01-06T03:01:18;15.18;;;6.13;;
23444;SDS011;11895;48.738;9.320;2023-01-06T03:03:58;12.77;;;5.65;;
23444;SDS011;11895;48.738;9.320;2023-01-06T03:06:32;11.20;;;5.85;;
23444;SDS011;11895;48.738;9.320;2023-01-06T03:09:02;14.63;;;6.47;;
23444;SDS011;11895;48.738;9.320;2023-01-06T03:11:36;10.73;;;6.13;;
23444;SDS011;11895;48.738;9.320;2023-01-06T03:14:09;11.25;;;6.50;;
23444;SDS011;11895;48.738;9.320;2023-01-06T03:16:46;11.07;;;6.15;;
23444;SDS011;11895;48.738;9.320;2023-01-06T03:19:14;13.75;;;5.97;;
23444;SDS011;11895;48.738;9.320;2023-01-06T03:24:19;13.05;;;6.00;;
23444;SDS011;11895;48.738;9.320;2023-01-06T03:26:48;9.50;;;5.63;;
23444;SDS011;11895;48.738;9.320;2023-01-06T03:29:18;14.40;;;6.40;;
23444;SDS011;11895;48.738;9.320;2023-01-06T03:40:38;13.10;;;5.70;;
23444;SDS011;11895;48.738;9.320;2023-01-06T03:54:40;10.07;;;6.03;;
23444;SDS011;11895;48.738;9.320;2023-01-06T03:57:53;10.35;;;5.78;;
23444;SDS011;11895;48.738;9.320;2023-01-06T04:00:23;11.43;;;6.13;;
23444;SDS011;11895;48.738;9.320;2023-01-06T04:03:00;10.25;;;5.60;;
23444;SDS011;11895;48.738;9.320;2023-01-06T04:05:28;9.20;;;5.40;;
23444;SDS011;11895;48.738;9.320;2023-01-06T04:07:59;11.50;;;5.80;;
23444;SDS011;11895;48.738;9.320;2023-01-06T04:10:27;13.95;;;6.28;;
23444;SDS011;11895;48.738;9.320;2023-01-06T04:12:57;11.13;;;5.80;;
23444;SDS011;11895;48.738;9.320;2023-01-06T04:15:28;10.50;;;5.25;;
23444;SDS011;11895;48.738;9.320;2023-01-06T04:17:58;8.50;;;5.57;;
23444;SDS011;11895;48.738;9.320;2023-01-06T04:20:29;14.88;;;5.80;;
23444;SDS011;11895;48.738;9.320;2023-01-06T04:23:04;11.30;;;6.18;;
23444;SDS011;11895;48.738;9.320;2023-01-06T04:25:39;13.50;;;5.75;;
23444;SDS011;11895;48.738;9.320;2023-01-06T04:28:18;13.10;;;5.82;;
23444;SDS011;11895;48.738;9.320;2023-01-06T04:30:48;12.00;;;5.68;;
23444;SDS011;11895;48.738;9.320;2023-01-06T04:33:16;12.05;;;5.32;;
23444;SDS011;11895;48.738;9.320;2023-01-06T04:35:46;10.57;;;5.85;;
23444;SDS011;11895;48.738;9.320;2023-01-06T04:38:17;9.40;;;5.32;;
23444;SDS011;11895;48.738;9.320;2023-01-06T04:40:45;10.43;;;5.05;;
23444;SDS011;11895;48.738;9.320;2023-01-06T04:43:13;11.43;;;5.40;;
23444;SDS011;11895;48.738;9.320;2023-01-06T04:45:43;11.00;;;5.75;;
23444;SDS011;11895;48.738;9.320;2023-01-06T04:48:12;8.40;;;5.05;;
23444;SDS011;11895;48.738;9.320;2023-01-06T04:50:40;13.57;;;5.93;;
23444;SDS011;11895;48.738;9.320;2023-01-06T04:53:08;10.43;;;5.60;;
23444;SDS011;11895;48.738;9.320;2023-01-06T04:55:38;8.85;;;5.25;;
23444;SDS011;11895;48.738;9.320;2023-01-06T04:58:07;14.57;;;5.97;;
23444;SDS011;11895;48.738;9.320;2023-01-06T05:00:35;9.73;;;5.70;;
23444;SDS011;11895;48.738;9.320;2023-01-06T05:03:02;8.90;;;5.32;;
23444;SDS011;11895;48.738;9.320;2023-01-06T05:05:30;7.65;;;4.82;;
23444;SDS011;11895;48.738;9.320;2023-01-06T05:07:58;12.27;;;5.47;;
23444;SDS011;11895;48.738;9.320;2023-01-06T05:10:25;10.77;;;5.05;;
23444;SDS011;11895;48.738;9.320;2023-01-06T05:12:53;6.53;;;4.80;;
23444;SDS011;11895;48.738;9.320;2023-01-06T05:15:20;10.02;;;5.47;;
23444;SDS011;11895;48.738;9.320;2023-01-06T05:17:50;8.25;;;5.13;;
23444;SDS011;11895;48.738;9.320;2023-01-06T05:20:18;8.27;;;5.13;;
23444;SDS011;11895;48.738;9.320;2023-01-06T05:22:45;8.80;;;4.78;;
23444;SDS011;11895;48.738;9.320;2023-01-06T05:25:13;10.15;;;5.47;;
23444;SDS011;11895;48.738;9.320;2023-01-06T05:27:41;11.20;;;5.07;;
23444;SDS011;11895;48.738;9.320;2023-01-06T05:30:08;12.90;;;5.28;;
23444;SDS011;11895;48.738;9.320;2023-01-06T05:32:37;10.70;;;4.88;;
23444;SDS011;11895;48.738;9.320;2023-01-06T05:35:05;11.73;;;5.78;;
23444;SDS011;11895;48.738;9.320;2023-01-06T05:37:33;10.80;;;6.03;;
23444;SDS011;11895;48.738;9.320;2023-01-06T05:40:01;9.07;;;5.32;;
23444;SDS011;11895;48.738;9.320;2023-01-06T05:42:29;11.85;;;6.20;;
23444;SDS011;11895;48.738;9.320;2023-01-06T05:44:56;10.15;;;5.85;;
23444;SDS011;11895;48.738;9.320;2023-01-06T05:47:24;12.00;;;5.82;;
23444;SDS011;11895;48.738;9.320;2023-01-06T05:49:51;14.52;;;5.85;;
23444;SDS011;11895;48.738;9.320;2023-01-06T05:52:19;9.02;;;5.38;;
23444;SDS011;11895;48.738;9.320;2023-01-06T05:54:47;8.05;;;5.60;;
23444;SDS011;11895;48.738;9.320;2023-01-06T05:57:14;8.25;;;5.65;;
23444;SDS011;11895;48.738;9.320;2023-01-06T05:59:42;9.35;;;5.30;;
23444;SDS011;11895;48.738;9.320;2023-01-06T06:02:10;8.05;;;5.07;;
23444;SDS011;11895;48.738;9.320;2023-01-06T06:04:37;8.15;;;5.00;;
23444;SDS011;11895;48.738;9.320;2023-01-06T06:07:05;12.02;;;5.57;;
23444;SDS011;11895;48.738;9.320;2023-01-06T06:09:34;9.45;;;5.28;;
23444;SDS011;11895;48.738;9.320;2023-01-06T06:12:02;8.13;;;5.13;;
23444;SDS011;11895;48.738;9.320;2023-01-06T06:14:30;11.50;;;4.82;;
23444;SDS011;11895;48.738;9.320;2023-01-06T06:16:57;8.80;;;4.38;;
23444;SDS011;11895;48.738;9.320;2023-01-06T06:19:25;6.65;;;4.43;;
23444;SDS011;11895;48.738;9.320;2023-01-06T06:21:53;7.80;;;4.07;;
23444;SDS011;11895;48.738;9.320;2023-01-06T06:24:20;8.45;;;4.60;;
23444;SDS011;11895;48.738;9.320;2023-01-06T06:26:48;8.52;;;4.40;;
23444;SDS011;11895;48.738;9.320;2023-01-06T06:29:15;6.65;;;3.85;;
23444;SDS011;11895;48.738;9.320;2023-01-06T06:31:43;6.10;;;4.15;;
23444;SDS011;11895;48.738;9.320;2023-01-06T06:34:11;7.03;;;3.70;;
23444;SDS011;11895;48.738;9.320;2023-01-06T06:36:39;9.63;;;3.60;;
23444;SDS011;11895;48.738;9.320;2023-01-06T06:39:07;6.70;;;4.18;;
23444;SDS011;11895;48.738;9.320;2023-01-06T06:41:34;6.50;;;3.75;;
23444;SDS011;11895;48.738;9.320;2023-01-06T06:44:02;7.50;;;3.80;;
23444;SDS011;11895;48.738;9.320;2023-01-06T06:46:30;6.55;;;3.95;;
23444;SDS011;11895;48.738;9.320;2023-01-06T06:48:58;7.53;;;3.35;;
23444;SDS011;11895;48.738;9.320;2023-01-06T06:51:25;5.30;;;3.30;;
23444;SDS011;11895;48.738;9.320;2023-01-06T06:53:55;9.32;;;3.42;;
23444;SDS011;11895;48.738;9.320;2023-01-06T06:56:23;6.13;;;3.60;;
23444;SDS011;11895;48.738;9.320;2023-01-06T06:58:55;7.18;;;3.80;;
23444;SDS011;11895;48.738;9.320;2023-01-06T07:01:23;6.70;;;3.70;;
23444;SDS011;11895;48.738;9.320;2023-01-06T07:03:50;8.55;;;3.30;;
23444;SDS011;11895;48.738;9.320;2023-01-06T07:06:19;10.68;;;4.93;;
23444;SDS011;11895;48.738;9.320;2023-01-06T07:08:48;6.38;;;3.22;;
23444;SDS011;11895;48.738;9.320;2023-01-06T07:11:17;6.20;;;3.40;;
23444;SDS011;11895;48.738;9.320;2023-01-06T07:13:46;5.15;;;2.65;;
23444;SDS011;11895;48.738;9.320;2023-01-06T07:16:17;6.00;;;2.28;;
23444;SDS011;11895;48.738;9.320;2023-01-06T07:18:48;4.60;;;2.00;;
23444;SDS011;11895;48.738;9.320;2023-01-06T07:21:16;4.65;;;2.50;;
23444;SDS011;11895;48.738;9.320;2023-01-06T07:23:44;4.47;;;2.65;;
23444;SDS011;11895;48.738;9.320;2023-01-06T07:26:12;2.85;;;2.30;;
23444;SDS011;11895;48.738;9.320;2023-01-06T07:28:41;5.20;;;2.10;;
23444;SDS011;11895;48.738;9.320;2023-01-06T07:31:08;2.65;;;1.80;;
23444;SDS011;11895;48.738;9.320;2023-01-06T07:33:36;3.42;;;2.17;;
23444;SDS011;11895;48.738;9.320;2023-01-06T07:36:04;3.03;;;2.17;;
23444;SDS011;11895;48.738;9.320;2023-01-06T07:38:33;4.65;;;3.05;;
23444;SDS011;11895;48.738;9.320;2023-01-06T07:41:00;3.95;;;2.40;;
23444;SDS011;11895;48.738;9.320;2023-01-06T07:43:28;3.15;;;2.10;;
23444;SDS011;11895;48.738;9.320;2023-01-06T07:45:56;4.53;;;2.25;;
23444;SDS011;11895;48.738;9.320;2023-01-06T07:48:23;3.20;;;2.17;;
23444;SDS011;11895;48.738;9.320;2023-01-06T07:50:51;4.93;;;2.33;;
23444;SDS011;11895;48.738;9.320;2023-01-06T07:53:19;4.30;;;2.40;;
23444;SDS011;11895;48.738;9.320;2023-01-06T07:55:51;2.55;;;1.90;;
23444;SDS011;11895;48.738;9.320;2023-01-06T07:58:19;4.30;;;2.20;;
23444;SDS011;11895;48.738;9.320;2023-01-06T08:00:49;4.88;;;2.30;;
23444;SDS011;11895;48.738;9.320;2023-01-06T08:03:18;3.80;;;2.10;;
23444;SDS011;11895;48.738;9.320;2023-01-06T08:05:46;2.83;;;1.77;;
23444;SDS011;11895;48.738;9.320;2023-01-06T08:08:14;2.38;;;1.67;;
23444;SDS011;11895;48.738;9.320;2023-01-06T08:10:42;3.05;;;1.55;;
23444;SDS011;11895;48.738;9.320;2023-01-06T08:13:10;3.92;;;2.47;;
23444;SDS011;11895;48.738;9.320;2023-01-06T08:15:38;4.05;;;2.10;;
23444;SDS011;11895;48.738;9.320;2023-01-06T08:18:06;4.03;;;2.30;;
23444;SDS011;11895;48.738;9.320;2023-01-06T08:20:34;3.90;;;1.97;;
23444;SDS011;11895;48.738;9.320;2023-01-06T08:23:07;5.47;;;2.58;;
23444;SDS011;11895;48.738;9.320;2023-01-06T08:25:37;4.60;;;2.15;;
23444;SDS011;11895;48.738;9.320;2023-01-06T08:28:07;3.83;;;2.40;;
23444;SDS011;11895;48.738;9.320;2023-01-06T08:30:37;3.38;;;1.92;;
23444;SDS011;11895;48.738;9.320;2023-01-06T08:33:07;5.88;;;2.28;;
23444;SDS011;11895;48.738;9.320;2023-01-06T08:35:38;5.57;;;1.73;;
23444;SDS011;11895;48.738;9.320;2023-01-06T08:38:05;7.97;;;2.70;;
23444;SDS011;11895;48.738;9.320;2023-01-06T08:40:33;3.80;;;2.13;;
23444;SDS011;11895;48.738;9.320;2023-01-06T08:43:01;3.63;;;2.67;;
23444;SDS011;11895;48.738;9.320;2023-01-06T08:45:28;2.45;;;1.30;;
23444;SDS011;11895;48.738;9.320;2023-01-06T08:47:56;5.75;;;1.60;;
23444;SDS011;11895;48.738;9.320;2023-01-06T08:50:23;3.17;;;1.90;;
23444;SDS011;11895;48.738;9.320;2023-01-06T08:52:52;3.13;;;1.80;;
23444;SDS011;11895;48.738;9.320;2023-01-06T08:55:20;2.35;;;1.80;;
23444;SDS011;11895;48.738;9.320;2023-01-06T08:57:48;2.80;;;1.40;;
23444;SDS011;11895;48.738;9.320;2023-01-06T09:00:15;2.05;;;1.60;;
23444;SDS011;11895;48.738;9.320;2023-01-06T09:02:43;2.30;;;1.77;;
23444;SDS011;11895;48.738;9.320;2023-01-06T09:05:11;3.30;;;2.72;;
23444;SDS011;11895;48.738;9.320;2023-01-06T09:07:39;3.28;;;2.08;;
23444;SDS011;11895;48.738;9.320;2023-01-06T09:10:06;4.78;;;2.92;;
23444;SDS011;11895;48.738;9.320;2023-01-06T09:12:34;10.35;;;4.63;;
23444;SDS011;11895;48.738;9.320;2023-01-06T09:15:02;6.55;;;4.35;;
23444;SDS011;11895;48.738;9.320;2023-01-06T09:17:31;6.00;;;3.38;;
23444;SDS011;11895;48.738;9.320;2023-01-06T09:19:58;13.05;;;3.88;;
23444;SDS011;11895;48.738;9.320;2023-01-06T09:22:26;5.80;;;2.90;;
23444;SDS011;11895;48.738;9.320;2023-01-06T09:24:53;3.38;;;2.10;;
23444;SDS011;11895;48.738;9.320;2023-01-06T09:27:21;2.78;;;2.40;;
23444;SDS011;11895;48.738;9.320;2023-01-06T09:29:49;2.88;;;1.92;;
23444;SDS011;11895;48.738;9.320;2023-01-06T09:32:17;2.65;;;2.03;;
23444;SDS011;11895;48.738;9.320;2023-01-06T09:34:44;4.50;;;3.10;;
23444;SDS011;11895;48.738;9.320;2023-01-06T09:37:12;2.80;;;2.03;;
23444;SDS011;11895;48.738;9.320;2023-01-06T09:39:40;2.70;;;1.97;;
23444;SDS011;11895;48.738;9.320;2023-01-06T09:42:23;4.97;;;1.92;;
23444;SDS011;11895;48.738;9.320;2023-01-06T09:44:57;2.63;;;1.80;;
23444;SDS011;11895;48.738;9.320;2023-01-06T09:47:39;4.03;;;2.45;;
23444;SDS011;11895;48.738;9.320;2023-01-06T09:50:33;2.00;;;1.80;;
23444;SDS011;11895;48.738;9.320;2023-01-06T09:56:04;2.63;;;2.08;;
23444;SDS011;11895;48.738;9.320;2023-01-06T09:58:44;5.95;;;3.47;;
23444;SDS011;11895;48.738;9.320;2023-01-06T10:01:29;3.08;;;2.20;;
23444;SDS011;11895;48.738;9.320;2023-01-06T10:04:07;2.83;;;2.17;;
23444;SDS011;11895;48.738;9.320;2023-01-06T10:06:43;2.83;;;1.70;;
23444;SDS011;11895;48.738;9.320;2023-01-06T10:15:39;4.97;;;3.00;;
23444;SDS011;11895;48.738;9.320;2023-01-06T10:18:51;5.57;;;3.40;;
23444;SDS011;11895;48.738;9.320;2023-01-06T10:21:39;6.57;;;3.53;;
23444;SDS011;11895;48.738;9.320;2023-01-06T10:25:03;6.35;;;3.80;;
23444;SDS011;11895;48.738;9.320;2023-01-06T10:30:38;6.68;;;4.10;;
23444;SDS011;11895;48.738;9.320;2023-01-06T10:35:55;4.32;;;3.13;;
23444;SDS011;11895;48.738;9.320;2023-01-06T10:38:30;4.95;;;3.50;;
23444;SDS011;11895;48.738;9.320;2023-01-06T10:41:09;4.80;;;3.63;;
23444;SDS011;11895;48.738;9.320;2023-01-06T10:43:57;7.18;;;3.65;;
23444;SDS011;11895;48.738;9.320;2023-01-06T10:46:27;6.13;;;3.47;;
23444;SDS011;11895;48.738;9.320;2023-01-06T10:49:00;5.80;;;3.67;;
23444;SDS011;11895;48.738;9.320;2023-01-06T10:54:07;4.93;;;3.10;;
23444;SDS011;11895;48.738;9.320;2023-01-06T10:57:05;7.20;;;3.70;;
23444;SDS011;11895;48.738;9.320;2023-01-06T11:02:44;18.73;;;13.20;;
23444;SDS011;11895;48.738;9.320;2023-01-06T11:05:18;85.70;;;25.85;;
23444;SDS011;11895;48.738;9.320;2023-01-06T11:13:19;60.75;;;18.77;;
23444;SDS011;11895;48.738;9.320;2023-01-06T11:16:01;24.40;;;7.72;;
23444;SDS011;11895;48.738;9.320;2023-01-06T11:18:32;5.00;;;2.97;;
23444;SDS011;11895;48.738;9.320;2023-01-06T11:23:41;3.13;;;2.10;;
23444;SDS011;11895;48.738;9.320;2023-01-06T11:26:16;2.63;;;1.67;;
23444;SDS011;11895;48.738;9.320;2023-01-06T11:28:52;6.05;;;1.95;;
23444;SDS011;11895;48.738;9.320;2023-01-06T11:31:24;5.25;;;1.70;;
23444;SDS011;11895;48.738;9.320;2023-01-06T11:33:57;2.38;;;1.60;;
23444;SDS011;11895;48.738;9.320;2023-01-06T11:36:29;1.83;;;1.40;;
23444;SDS011;11895;48.738;9.320;2023-01-06T11:39:00;2.72;;;1.60;;
23444;SDS011;11895;48.738;9.320;2023-01-06T11:41:44;4.40;;;1.50;;
23444;SDS011;11895;48.738;9.320;2023-01-06T11:44:36;3.05;;;1.50;;
23444;SDS011;11895;48.738;9.320;2023-01-06T11:47:17;2.65;;;1.63;;
23444;SDS011;11895;48.738;9.320;2023-01-06T11:54:57;1.95;;;0.85;;
23444;SDS011;11895;48.738;9.320;2023-01-06T12:00:21;1.23;;;0.73;;
23444;SDS011;11895;48.738;9.320;2023-01-06T12:02:52;1.00;;;0.43;;
23444;SDS011;11895;48.738;9.320;2023-01-06T12:08:42;0.60;;;0.50;;
23444;SDS011;11895;48.738;9.320;2023-01-06T12:12:22;0.75;;;0.60;;
23444;SDS011;11895;48.738;9.320;2023-01-06T12:14:55;1.00;;;0.68;;
23444;SDS011;11895;48.738;9.320;2023-01-06T12:17:29;0.95;;;0.47;;
23444;SDS011;11895;48.738;9.320;2023-01-06T12:23:28;0.50;;;0.50;;
23444;SDS011;11895;48.738;9.320;2023-01-06T12:26:02;2.03;;;0.70;;
23444;SDS011;11895;48.738;9.320;2023-01-06T12:28:38;1.00;;;0.60;;
23444;SDS011;11895;48.738;9.320;2023-01-06T12:31:15;0.95;;;0.52;;
23444;SDS011;11895;48.738;9.320;2023-01-06T12:37:02;1.13;;;0.60;;
23444;SDS011;11895;48.738;9.320;2023-01-06T12:40:00;2.25;;;0.82;;
23444;SDS011;11895;48.738;9.320;2023-01-06T12:45:51;0.80;;;0.60;;
23444;SDS011;11895;48.738;9.320;2023-01-06T12:48:58;1.08;;;0.60;;
23444;SDS011;11895;48.738;9.320;2023-01-06T12:51:40;0.57;;;0.50;;
23444;SDS011;11895;48.738;9.320;2023-01-06T13:06:07;1.80;;;0.70;;
23444;SDS011;11895;48.738;9.320;2023-01-06T13:12:00;1.33;;;0.80;;
23444;SDS011;11895;48.738;9.320;2023-01-06T13:15:17;1.40;;;0.60;;
23444;SDS011;11895;48.738;9.320;2023-01-06T13:23:13;1.92;;;1.10;;
23444;SDS011;11895;48.738;9.320;2023-01-06T13:26:15;0.70;;;0.60;;
23444;SDS011;11895;48.738;9.320;2023-01-06T13:29:34;1.25;;;0.65;;
23444;SDS011;11895;48.738;9.320;2023-01-06T13:41:18;1.90;;;1.00;;
23444;SDS011;11895;48.738;9.320;2023-01-06T13:43:51;1.10;;;0.80;;
23444;SDS011;11895;48.738;9.320;2023-01-06T13:46:21;0.90;;;0.73;;
23444;SDS011;11895;48.738;9.320;2023-01-06T13:48:57;2.58;;;0.98;;
23444;SDS011;11895;48.738;9.320;2023-01-06T13:51:30;1.35;;;1.00;;
23444;SDS011;11895;48.738;9.320;2023-01-06T13:54:01;1.33;;;0.90;;
23444;SDS011;11895;48.738;9.320;2023-01-06T13:56:31;1.65;;;1.13;;
23444;SDS011;11895;48.738;9.320;2023-01-06T13:59:17;2.40;;;1.13;;
23444;SDS011;11895;48.738;9.320;2023-01-06T14:01:50;3.15;;;1.77;;
23444;SDS011;11895;48.738;9.320;2023-01-06T14:07:01;3.33;;;2.10;;
23444;SDS011;11895;48.738;9.320;2023-01-06T14:09:30;1.27;;;1.10;;
23444;SDS011;11895;48.738;9.320;2023-01-06T14:12:30;1.63;;;1.25;;
23444;SDS011;11895;48.738;9.320;2023-01-06T14:15:04;2.60;;;1.65;;
23444;SDS011;11895;48.738;9.320;2023-01-06T14:17:45;2.10;;;1.00;;
23444;SDS011;11895;48.738;9.320;2023-01-06T14:23:02;4.38;;;2.00;;
23444;SDS011;11895;48.738;9.320;2023-01-06T14:30:46;4.50;;;1.55;;
23444;SDS011;11895;48.738;9.320;2023-01-06T14:46:25;3.65;;;1.55;;
23444;SDS011;11895;48.738;9.320;2023-01-06T14:48:58;2.72;;;1.50;;
23444;SDS011;11895;48.738;9.320;2023-01-06T14:51:29;1.33;;;1.10;;
23444;SDS011;11895;48.738;9.320;2023-01-06T14:56:33;2.70;;;1.70;;
23444;SDS011;11895;48.738;9.320;2023-01-06T14:59:02;6.72;;;2.70;;
23444;SDS011;11895;48.738;9.320;2023-01-06T15:01:36;9.57;;;2.35;;
23444;SDS011;11895;48.738;9.320;2023-01-06T15:04:19;2.67;;;1.52;;
23444;SDS011;11895;48.738;9.320;2023-01-06T15:09:29;2.75;;;1.33;;
23444;SDS011;11895;48.738;9.320;2023-01-06T15:11:57;5.03;;;2.05;;
23444;SDS011;11895;48.738;9.320;2023-01-06T15:14:26;2.50;;;1.13;;
23444;SDS011;11895;48.738;9.320;2023-01-06T15:17:02;2.33;;;1.20;;
23444;SDS011;11895;48.738;9.320;2023-01-06T15:19:32;2.42;;;1.63;;
23444;SDS011;11895;48.738;9.320;2023-01-06T15:22:04;3.60;;;2.58;;
23444;SDS011;11895;48.738;9.320;2023-01-06T15:24:33;12.43;;;5.30;;
23444;SDS011;11895;48.738;9.320;2023-01-06T15:27:10;10.25;;;5.45;;
23444;SDS011;11895;48.738;9.320;2023-01-06T15:29:50;9.27;;;5.53;;
23444;SDS011;11895;48.738;9.320;2023-01-06T15:32:25;10.20;;;5.53;;
23444;SDS011;11895;48.738;9.320;2023-01-06T15:34:54;10.32;;;5.43;;
23444;SDS011;11895;48.738;9.320;2023-01-06T15:37:25;7.57;;;4.00;;
23444;SDS011;11895;48.738;9.320;2023-01-06T15:40:00;18.67;;;11.80;;
23444;SDS011;11895;48.738;9.320;2023-01-06T15:42:30;8.40;;;5.30;;
23444;SDS011;11895;48.738;9.320;2023-01-06T15:44:59;4.88;;;2.72;;
23444;SDS011;11895;48.738;9.320;2023-01-06T15:47:35;4.10;;;2.60;;
23444;SDS011;11895;48.738;9.320;2023-01-06T15:50:08;5.35;;;2.80;;
23444;SDS011;11895;48.738;9.320;2023-01-06T15:52:48;4.25;;;2.33;;
23444;SDS011;11895;48.738;9.320;2023-01-06T15:55:19;4.03;;;2.15;;
23444;SDS011;11895;48.738;9.320;2023-01-06T15:57:53;4.93;;;2.78;;
23444;SDS011;11895;48.738;9.320;2023-01-06T16:01:00;3.75;;;2.42;;
23444;SDS011;11895;48.738;9.320;2023-01-06T16:03:35;3.60;;;2.30;;
23444;SDS011;11895;48.738;9.320;2023-01-06T16:08:42;4.00;;;2.53;;
23444;SDS011;11895;48.738;9.320;2023-01-06T16:14:27;3.55;;;1.88;;
23444;SDS011;11895;48.738;9.320;2023-01-06T16:19:55;5.45;;;2.53;;
23444;SDS011;11895;48.738;9.320;2023-01-06T16:22:48;3.50;;;2.17;;
23444;SDS011;11895;48.738;9.320;2023-01-06T16:25:25;3.47;;;2.42;;
23444;SDS011;11895;48.738;9.320;2023-01-06T16:27:59;5.25;;;2.92;;
23444;SDS011;11895;48.738;9.320;2023-01-06T16:30:30;7.55;;;4.60;;
23444;SDS011;11895;48.738;9.320;2023-01-06T16:33:01;6.70;;;4.28;;
23444;SDS011;11895;48.738;9.320;2023-01-06T16:35:30;5.97;;;3.27;;
23444;SDS011;11895;48.738;9.320;2023-01-06T16:38:00;5.78;;;3.40;;
23444;SDS011;11895;48.738;9.320;2023-01-06T16:40:30;6.95;;;3.20;;
23444;SDS011;11895;48.738;9.320;2023-01-06T16:48:12;5.10;;;2.47;;
23444;SDS011;11895;48.738;9.320;2023-01-06T16:50:43;4.22;;;2.50;;
23444;SDS011;11895;48.738;9.320;2023-01-06T16:53:16;5.88;;;3.10;;
23444;SDS011;11895;48.738;9.320;2023-01-06T16:55:53;7.55;;;3.40;;
23444;SDS011;11895;48.738;9.320;2023-01-06T16:58:23;6.55;;;3.30;;
23444;SDS011;11895;48.738;9.320;2023-01-06T17:00:57;4.20;;;2.78;;
23444;SDS011;11895;48.738;9.320;2023-01-06T17:03:40;5.05;;;3.17;;
23444;SDS011;11895;48.738;9.320;2023-01-06T17:06:09;4.60;;;2.93;;
23444;SDS011;11895;48.738;9.320;2023-01-06T17:08:46;6.73;;;2.80;;
23444;SDS011;11895;48.738;9.320;2023-01-06T17:11:17;7.05;;;4.53;;
23444;SDS011;11895;48.738;9.320;2023-01-06T17:16:22;8.82;;;5.43;;
23444;SDS011;11895;48.738;9.320;2023-01-06T17:18:56;7.28;;;5.32;;
23444;SDS011;11895;48.738;9.320;2023-01-06T17:21:37;10.75;;;5.38;;
23444;SDS011;11895;48.738;9.320;2023-01-06T17:27:11;11.15;;;6.38;;
23444;SDS011;11895;48.738;9.320;2023-01-06T17:29:57;22.58;;;13.15;;
23444;SDS011;11895;48.738;9.320;2023-01-06T17:35:04;13.55;;;8.77;;
23444;SDS011;11895;48.738;9.320;2023-01-06T17:37:59;8.30;;;5.00;;
23444;SDS011;11895;48.738;9.320;2023-01-06T17:40:42;8.40;;;5.00;;
23444;SDS011;11895;48.738;9.320;2023-01-06T17:45:53;12.98;;;5.93;;
23444;SDS011;11895;48.738;9.320;2023-01-06T17:48:21;10.07;;;6.25;;
23444;SDS011;11895;48.738;9.320;2023-01-06T17:50:50;11.27;;;5.00;;
23444;SDS011;11895;48.738;9.320;2023-01-06T17:53:27;9.73;;;5.90;;
23444;SDS011;11895;48.738;9.320;2023-01-06T17:56:23;16.23;;;8.55;;
23444;SDS011;11895;48.738;9.320;2023-01-06T17:58:58;13.90;;;6.75;;
23444;SDS011;11895;48.738;9.320;2023-01-06T18:01:37;11.55;;;6.35;;
23444;SDS011;11895;48.738;9.320;2023-01-06T18:04:08;14.30;;;6.97;;
23444;SDS011;11895;48.738;9.320;2023-01-06T18:06:39;13.60;;;7.28;;
23444;SDS011;11895;48.738;9.320;2023-01-06T18:09:13;10.68;;;6.53;;
23444;SDS011;11895;48.738;9.320;2023-01-06T18:11:45;9.73;;;6.47;;
23444;SDS011;11895;48.738;9.320;2023-01-06T18:16:53;9.40;;;5.90;;
23444;SDS011;11895;48.738;9.320;2023-01-06T18:22:17;10.70;;;6.63;;
23444;SDS011;11895;48.738;9.320;2023-01-06T18:24:49;19.08;;;8.57;;
23444;SDS011;11895;48.738;9.320;2023-01-06T18:27:22;13.82;;;8.07;;
23444;SDS011;11895;48.738;9.320;2023-01-06T18:30:32;12.32;;;7.82;;
23444;SDS011;11895;48.738;9.320;2023-01-06T18:32:53;12.93;;;7.85;;
23444;SDS011;11895;48.738;9.320;2023-01-06T18:35:22;19.30;;;9.52;;
23444;SDS011;11895;48.738;9.320;2023-01-06T18:37:57;15.80;;;8.88;;
23444;SDS011;11895;48.738;9.320;2023-01-06T18:40:28;19.45;;;11.13;;
23444;SDS011;11895;48.738;9.320;2023-01-06T18:42:57;19.42;;;12.43;;